sensor_id;sensor_type;location;lat;lon;timestamp;P1;durP1;ratioP1;P2;durP2;ratioP2
20855;SDS011;63058;49.424;8.420;2022-11-24T00:01:52;8.77;;;1.50;;
20855;SDS011;63058;49.424;8.420;2022-11-24T00:04:17;4.82;;;1.23;;
20855;SDS011;63058;49.424;8.420;2022-11-24T00:06:43;7.22;;;1.67;;
20855;SDS011;63058;49.424;8.420;2022-11-24T00:09:09;5.25;;;1.42;;
20855;SDS011;63058;49.424;8.420;2022-11-24T00:11:35;9.07;;;1.83;;
20855;SDS011;63058;49.424;8.420;2022-11-24T00:14:01;6.47;;;1.60;;
20855;SDS011;63058;49.424;8.420;2022-11-24T00:16:29;7.03;;;1.50;;
20855;SDS011;63058;49.424;8.420;2022-11-24T00:18:57;8.73;;;1.92;;
20855;SDS011;63058;49.424;8.420;2022-11-24T00:21:25;6.85;;;1.88;;
20855;SDS011;63058;49.424;8.420;2022-11-24T00:23:51;5.82;;;1.63;;
20855;SDS011;63058;49.424;8.420;2022-11-24T00:26:22;7.35;;;1.50;;
20855;SDS011;63058;49.424;8.420;2022-11-24T00:28:52;4.63;;;1.52;;
20855;SDS011;63058;49.424;8.420;2022-11-24T00:33:48;6.72;;;1.50;;
20855;SDS011;63058;49.424;8.420;2022-11-24T00:36:15;9.82;;;1.80;;
20855;SDS011;63058;49.424;8.420;2022-11-24T00:38:41;7.70;;;1.95;;
20855;SDS011;63058;49.424;8.420;2022-11-24T00:41:07;9.23;;;2.10;;
20855;SDS011;63058;49.424;8.420;2022-11-24T00:43:33;4.03;;;1.60;;
20855;SDS011;63058;49.424;8.420;2022-11-24T00:45:59;4.75;;;1.48;;
20855;SDS011;63058;49.424;8.420;2022-11-24T00:48:24;6.82;;;1.90;;
20855;SDS011;63058;49.424;8.420;2022-11-24T00:50:54;9.00;;;1.95;;
20855;SDS011;63058;49.424;8.420;2022-11-24T00:53:24;8.60;;;1.90;;
20855;SDS011;63058;49.424;8.420;2022-11-24T00:55:50;7.90;;;2.15;;
20855;SDS011;63058;49.424;8.420;2022-11-24T00:58:16;6.65;;;1.80;;
20855;SDS011;63058;49.424;8.420;2022-11-24T01:00:42;6.60;;;1.90;;
20855;SDS011;63058;49.424;8.420;2022-11-24T01:03:08;7.72;;;1.65;;
20855;SDS011;63058;49.424;8.420;2022-11-24T01:05:36;7.40;;;1.63;;
20855;SDS011;63058;49.424;8.420;2022-11-24T01:08:03;8.95;;;1.80;;
20855;SDS011;63058;49.424;8.420;2022-11-24T01:10:29;6.13;;;1.88;;
20855;SDS011;63058;49.424;8.420;2022-11-24T01:12:54;4.50;;;1.35;;
20855;SDS011;63058;49.424;8.420;2022-11-24T01:15:20;7.32;;;1.85;;
20855;SDS011;63058;49.424;8.420;2022-11-24T01:17:45;8.40;;;1.90;;
20855;SDS011;63058;49.424;8.420;2022-11-24T01:20:11;9.90;;;1.90;;
20855;SDS011;63058;49.424;8.420;2022-11-24T01:22:38;7.68;;;1.52;;
20855;SDS011;63058;49.424;8.420;2022-11-24T01:25:04;7.47;;;2.10;;
20855;SDS011;63058;49.424;8.420;2022-11-24T01:27:30;5.72;;;1.92;;
20855;SDS011;63058;49.424;8.420;2022-11-24T01:29:56;7.20;;;1.63;;
20855;SDS011;63058;49.424;8.420;2022-11-24T01:32:22;5.82;;;1.60;;
20855;SDS011;63058;49.424;8.420;2022-11-24T01:34:47;5.50;;;1.63;;
20855;SDS011;63058;49.424;8.420;2022-11-24T01:37:13;6.57;;;1.88;;
20855;SDS011;63058;49.424;8.420;2022-11-24T01:39:39;8.68;;;1.60;;
20855;SDS011;63058;49.424;8.420;2022-11-24T01:42:05;6.25;;;1.63;;
20855;SDS011;63058;49.424;8.420;2022-11-24T01:44:31;7.40;;;1.73;;
20855;SDS011;63058;49.424;8.420;2022-11-24T01:47:39;8.57;;;1.70;;
20855;SDS011;63058;49.424;8.420;2022-11-24T01:49:52;10.15;;;1.90;;
20855;SDS011;63058;49.424;8.420;2022-11-24T01:52:23;8.05;;;1.52;;
20855;SDS011;63058;49.424;8.420;2022-11-24T01:54:54;6.80;;;1.23;;
20855;SDS011;63058;49.424;8.420;2022-11-24T02:00:00;4.47;;;1.30;;
20855;SDS011;63058;49.424;8.420;2022-11-24T02:02:32;5.60;;;1.55;;
20855;SDS011;63058;49.424;8.420;2022-11-24T02:04:59;5.68;;;1.35;;
20855;SDS011;63058;49.424;8.420;2022-11-24T02:07:32;5.30;;;1.50;;
20855;SDS011;63058;49.424;8.420;2022-11-24T02:10:05;6.43;;;1.58;;
20855;SDS011;63058;49.424;8.420;2022-11-24T02:12:35;4.00;;;1.17;;
20855;SDS011;63058;49.424;8.420;2022-11-24T02:15:03;4.95;;;1.33;;
20855;SDS011;63058;49.424;8.420;2022-11-24T02:17:29;5.30;;;1.48;;
20855;SDS011;63058;49.424;8.420;2022-11-24T02:25:21;4.15;;;1.27;;
20855;SDS011;63058;49.424;8.420;2022-11-24T02:27:51;4.68;;;1.58;;
20855;SDS011;63058;49.424;8.420;2022-11-24T02:30:20;7.32;;;1.63;;
20855;SDS011;63058;49.424;8.420;2022-11-24T02:32:45;4.72;;;1.65;;
20855;SDS011;63058;49.424;8.420;2022-11-24T02:35:11;5.50;;;1.77;;
20855;SDS011;63058;49.424;8.420;2022-11-24T02:37:37;4.00;;;1.38;;
20855;SDS011;63058;49.424;8.420;2022-11-24T02:40:03;7.50;;;2.17;;
20855;SDS011;63058;49.424;8.420;2022-11-24T02:42:29;8.65;;;2.17;;
20855;SDS011;63058;49.424;8.420;2022-11-24T02:44:58;5.55;;;1.38;;
20855;SDS011;63058;49.424;8.420;2022-11-24T02:47:24;6.53;;;1.60;;
20855;SDS011;63058;49.424;8.420;2022-11-24T02:49:50;6.30;;;1.35;;
20855;SDS011;63058;49.424;8.420;2022-11-24T02:52:16;6.38;;;1.30;;
20855;SDS011;63058;49.424;8.420;2022-11-24T02:54:41;5.95;;;1.48;;
20855;SDS011;63058;49.424;8.420;2022-11-24T02:57:07;7.82;;;1.80;;
20855;SDS011;63058;49.424;8.420;2022-11-24T02:59:33;8.35;;;2.08;;
20855;SDS011;63058;49.424;8.420;2022-11-24T03:01:59;5.32;;;1.50;;
20855;SDS011;63058;49.424;8.420;2022-11-24T03:04:25;4.32;;;1.50;;
20855;SDS011;63058;49.424;8.420;2022-11-24T03:06:50;6.72;;;1.75;;
20855;SDS011;63058;49.424;8.420;2022-11-24T03:09:16;6.15;;;1.60;;
20855;SDS011;63058;49.424;8.420;2022-11-24T03:11:41;6.55;;;1.45;;
20855;SDS011;63058;49.424;8.420;2022-11-24T03:14:07;4.70;;;1.75;;
20855;SDS011;63058;49.424;8.420;2022-11-24T03:16:33;6.53;;;1.80;;
20855;SDS011;63058;49.424;8.420;2022-11-24T03:18:58;6.07;;;1.70;;
20855;SDS011;63058;49.424;8.420;2022-11-24T03:21:25;7.53;;;2.00;;
20855;SDS011;63058;49.424;8.420;2022-11-24T03:23:50;7.03;;;1.40;;
20855;SDS011;63058;49.424;8.420;2022-11-24T03:26:17;6.95;;;1.50;;
20855;SDS011;63058;49.424;8.420;2022-11-24T03:28:44;5.25;;;1.85;;
20855;SDS011;63058;49.424;8.420;2022-11-24T03:31:10;7.25;;;1.48;;
20855;SDS011;63058;49.424;8.420;2022-11-24T03:33:36;8.32;;;1.60;;
20855;SDS011;63058;49.424;8.420;2022-11-24T03:36:02;6.60;;;1.70;;
20855;SDS011;63058;49.424;8.420;2022-11-24T03:38:28;6.55;;;1.77;;
20855;SDS011;63058;49.424;8.420;2022-11-24T03:40:54;5.57;;;1.40;;
20855;SDS011;63058;49.424;8.420;2022-11-24T03:43:19;4.80;;;1.60;;
20855;SDS011;63058;49.424;8.420;2022-11-24T03:45:45;5.95;;;1.65;;
20855;SDS011;63058;49.424;8.420;2022-11-24T03:48:13;7.95;;;2.03;;
20855;SDS011;63058;49.424;8.420;2022-11-24T03:50:40;6.90;;;1.52;;
20855;SDS011;63058;49.424;8.420;2022-11-24T03:53:05;8.57;;;1.83;;
20855;SDS011;63058;49.424;8.420;2022-11-24T03:55:31;6.50;;;1.95;;
20855;SDS011;63058;49.424;8.420;2022-11-24T03:57:57;7.18;;;1.58;;
20855;SDS011;63058;49.424;8.420;2022-11-24T04:00:22;9.88;;;1.90;;
20855;SDS011;63058;49.424;8.420;2022-11-24T04:02:48;7.75;;;1.75;;
20855;SDS011;63058;49.424;8.420;2022-11-24T04:05:14;4.03;;;1.35;;
20855;SDS011;63058;49.424;8.420;2022-11-24T04:07:39;9.15;;;1.88;;
20855;SDS011;63058;49.424;8.420;2022-11-24T04:10:05;6.30;;;1.67;;
20855;SDS011;63058;49.424;8.420;2022-11-24T04:12:31;6.70;;;2.08;;
20855;SDS011;63058;49.424;8.420;2022-11-24T04:15:09;6.85;;;1.83;;
20855;SDS011;63058;49.424;8.420;2022-11-24T04:17:39;5.75;;;1.63;;
20855;SDS011;63058;49.424;8.420;2022-11-24T04:20:04;5.43;;;1.25;;
20855;SDS011;63058;49.424;8.420;2022-11-24T04:22:31;8.70;;;1.77;;
20855;SDS011;63058;49.424;8.420;2022-11-24T04:24:56;5.22;;;1.50;;
20855;SDS011;63058;49.424;8.420;2022-11-24T04:27:22;5.53;;;1.63;;
20855;SDS011;63058;49.424;8.420;2022-11-24T04:29:48;5.80;;;1.70;;
20855;SDS011;63058;49.424;8.420;2022-11-24T04:32:15;5.43;;;1.77;;
20855;SDS011;63058;49.424;8.420;2022-11-24T04:34:41;4.45;;;1.40;;
20855;SDS011;63058;49.424;8.420;2022-11-24T04:37:06;6.43;;;1.65;;
20855;SDS011;63058;49.424;8.420;2022-11-24T04:39:32;5.53;;;1.80;;
20855;SDS011;63058;49.424;8.420;2022-11-24T04:41:58;5.63;;;2.08;;
20855;SDS011;63058;49.424;8.420;2022-11-24T04:44:24;5.40;;;1.40;;
20855;SDS011;63058;49.424;8.420;2022-11-24T04:46:49;9.45;;;2.40;;
20855;SDS011;63058;49.424;8.420;2022-11-24T04:49:15;5.93;;;1.50;;
20855;SDS011;63058;49.424;8.420;2022-11-24T04:51:41;7.13;;;1.70;;
20855;SDS011;63058;49.424;8.420;2022-11-24T04:54:08;4.90;;;1.23;;
20855;SDS011;63058;49.424;8.420;2022-11-24T04:56:35;5.20;;;1.77;;
20855;SDS011;63058;49.424;8.420;2022-11-24T04:59:00;5.22;;;1.88;;
20855;SDS011;63058;49.424;8.420;2022-11-24T05:01:26;6.82;;;1.70;;
20855;SDS011;63058;49.424;8.420;2022-11-24T05:03:52;4.97;;;1.40;;
20855;SDS011;63058;49.424;8.420;2022-11-24T05:06:19;6.72;;;1.83;;
20855;SDS011;63058;49.424;8.420;2022-11-24T05:08:51;9.63;;;1.70;;
20855;SDS011;63058;49.424;8.420;2022-11-24T05:11:17;2.83;;;1.10;;
20855;SDS011;63058;49.424;8.420;2022-11-24T05:13:43;9.30;;;1.75;;
20855;SDS011;63058;49.424;8.420;2022-11-24T05:16:09;6.10;;;1.65;;
20855;SDS011;63058;49.424;8.420;2022-11-24T05:18:35;6.68;;;1.52;;
20855;SDS011;63058;49.424;8.420;2022-11-24T05:21:02;5.97;;;1.48;;
20855;SDS011;63058;49.424;8.420;2022-11-24T05:23:28;5.72;;;1.52;;
20855;SDS011;63058;49.424;8.420;2022-11-24T05:25:58;10.85;;;1.92;;
20855;SDS011;63058;49.424;8.420;2022-11-24T05:28:25;9.50;;;1.88;;
20855;SDS011;63058;49.424;8.420;2022-11-24T05:30:51;11.18;;;1.95;;
20855;SDS011;63058;49.424;8.420;2022-11-24T05:33:16;11.68;;;2.40;;
20855;SDS011;63058;49.424;8.420;2022-11-24T05:35:46;9.63;;;1.98;;
20855;SDS011;63058;49.424;8.420;2022-11-24T05:38:13;11.57;;;2.13;;
20855;SDS011;63058;49.424;8.420;2022-11-24T05:40:39;12.70;;;2.42;;
20855;SDS011;63058;49.424;8.420;2022-11-24T05:43:09;7.72;;;1.58;;
20855;SDS011;63058;49.424;8.420;2022-11-24T05:45:39;12.02;;;2.30;;
20855;SDS011;63058;49.424;8.420;2022-11-24T05:48:05;13.40;;;2.65;;
20855;SDS011;63058;49.424;8.420;2022-11-24T05:50:32;7.22;;;1.67;;
20855;SDS011;63058;49.424;8.420;2022-11-24T05:53:03;11.07;;;2.30;;
20855;SDS011;63058;49.424;8.420;2022-11-24T05:55:29;12.10;;;2.40;;
20855;SDS011;63058;49.424;8.420;2022-11-24T05:58:02;12.20;;;2.38;;
20855;SDS011;63058;49.424;8.420;2022-11-24T06:00:30;9.48;;;2.15;;
20855;SDS011;63058;49.424;8.420;2022-11-24T06:02:56;10.40;;;2.00;;
20855;SDS011;63058;49.424;8.420;2022-11-24T06:05:23;11.60;;;2.25;;
20855;SDS011;63058;49.424;8.420;2022-11-24T06:07:49;9.27;;;2.03;;
20855;SDS011;63058;49.424;8.420;2022-11-24T06:10:16;12.50;;;2.33;;
20855;SDS011;63058;49.424;8.420;2022-11-24T06:12:43;9.40;;;2.13;;
20855;SDS011;63058;49.424;8.420;2022-11-24T06:15:09;7.57;;;1.90;;
20855;SDS011;63058;49.424;8.420;2022-11-24T06:17:35;10.88;;;2.40;;
20855;SDS011;63058;49.424;8.420;2022-11-24T06:20:02;7.40;;;1.90;;
20855;SDS011;63058;49.424;8.420;2022-11-24T06:22:28;10.00;;;2.05;;
20855;SDS011;63058;49.424;8.420;2022-11-24T06:24:54;9.85;;;2.17;;
20855;SDS011;63058;49.424;8.420;2022-11-24T06:27:20;14.43;;;2.55;;
20855;SDS011;63058;49.424;8.420;2022-11-24T06:29:46;10.10;;;2.72;;
20855;SDS011;63058;49.424;8.420;2022-11-24T06:32:11;9.15;;;2.17;;
20855;SDS011;63058;49.424;8.420;2022-11-24T06:34:37;13.52;;;2.63;;
20855;SDS011;63058;49.424;8.420;2022-11-24T06:37:02;9.45;;;2.00;;
20855;SDS011;63058;49.424;8.420;2022-11-24T06:39:28;11.30;;;2.05;;
20855;SDS011;63058;49.424;8.420;2022-11-24T06:41:54;10.05;;;2.10;;
20855;SDS011;63058;49.424;8.420;2022-11-24T06:44:19;6.57;;;2.08;;
20855;SDS011;63058;49.424;8.420;2022-11-24T06:46:46;10.15;;;2.47;;
20855;SDS011;63058;49.424;8.420;2022-11-24T06:49:12;6.05;;;1.95;;
20855;SDS011;63058;49.424;8.420;2022-11-24T06:51:38;8.40;;;2.20;;
20855;SDS011;63058;49.424;8.420;2022-11-24T06:54:07;7.88;;;1.70;;
20855;SDS011;63058;49.424;8.420;2022-11-24T06:56:34;9.10;;;2.35;;
20855;SDS011;63058;49.424;8.420;2022-11-24T06:59:00;10.23;;;1.80;;
20855;SDS011;63058;49.424;8.420;2022-11-24T07:01:27;8.45;;;1.75;;
20855;SDS011;63058;49.424;8.420;2022-11-24T07:03:54;9.13;;;1.90;;
20855;SDS011;63058;49.424;8.420;2022-11-24T07:06:20;9.73;;;2.58;;
20855;SDS011;63058;49.424;8.420;2022-11-24T07:08:47;7.35;;;1.80;;
20855;SDS011;63058;49.424;8.420;2022-11-24T07:11:15;6.10;;;1.73;;
20855;SDS011;63058;49.424;8.420;2022-11-24T07:13:43;5.35;;;1.83;;
20855;SDS011;63058;49.424;8.420;2022-11-24T07:16:19;6.75;;;2.20;;
20855;SDS011;63058;49.424;8.420;2022-11-24T07:18:47;7.68;;;2.08;;
20855;SDS011;63058;49.424;8.420;2022-11-24T07:21:18;7.65;;;2.10;;
20855;SDS011;63058;49.424;8.420;2022-11-24T07:23:48;8.30;;;2.13;;
20855;SDS011;63058;49.424;8.420;2022-11-24T07:26:18;9.00;;;2.15;;
20855;SDS011;63058;49.424;8.420;2022-11-24T07:28:44;8.13;;;2.03;;
20855;SDS011;63058;49.424;8.420;2022-11-24T07:31:11;5.18;;;1.73;;
20855;SDS011;63058;49.424;8.420;2022-11-24T07:33:38;6.97;;;2.20;;
20855;SDS011;63058;49.424;8.420;2022-11-24T07:36:05;9.73;;;2.40;;
20855;SDS011;63058;49.424;8.420;2022-11-24T07:38:32;15.13;;;5.05;;
20855;SDS011;63058;49.424;8.420;2022-11-24T07:40:59;10.57;;;3.90;;
20855;SDS011;63058;49.424;8.420;2022-11-24T07:43:32;8.65;;;2.60;;
20855;SDS011;63058;49.424;8.420;2022-11-24T07:45:59;7.38;;;2.05;;
20855;SDS011;63058;49.424;8.420;2022-11-24T07:48:25;11.02;;;2.65;;
20855;SDS011;63058;49.424;8.420;2022-11-24T07:50:50;10.88;;;2.10;;
20855;SDS011;63058;49.424;8.420;2022-11-24T07:53:16;6.40;;;1.67;;
20855;SDS011;63058;49.424;8.420;2022-11-24T07:55:42;8.05;;;2.03;;
20855;SDS011;63058;49.424;8.420;2022-11-24T07:58:08;10.30;;;2.30;;
20855;SDS011;63058;49.424;8.420;2022-11-24T08:00:34;7.97;;;1.63;;
20855;SDS011;63058;49.424;8.420;2022-11-24T08:02:59;5.32;;;1.80;;
20855;SDS011;63058;49.424;8.420;2022-11-24T08:05:25;8.48;;;1.95;;
20855;SDS011;63058;49.424;8.420;2022-11-24T08:07:51;9.77;;;2.17;;
20855;SDS011;63058;49.424;8.420;2022-11-24T08:10:16;5.38;;;1.90;;
20855;SDS011;63058;49.424;8.420;2022-11-24T08:12:42;6.22;;;2.30;;
20855;SDS011;63058;49.424;8.420;2022-11-24T08:15:08;9.70;;;2.00;;
20855;SDS011;63058;49.424;8.420;2022-11-24T08:17:34;6.13;;;1.60;;
20855;SDS011;63058;49.424;8.420;2022-11-24T08:19:59;11.35;;;2.38;;
20855;SDS011;63058;49.424;8.420;2022-11-24T08:22:25;8.27;;;2.17;;
20855;SDS011;63058;49.424;8.420;2022-11-24T08:24:51;12.35;;;2.72;;
20855;SDS011;63058;49.424;8.420;2022-11-24T08:27:17;10.75;;;2.13;;
20855;SDS011;63058;49.424;8.420;2022-11-24T08:29:43;5.15;;;1.73;;
20855;SDS011;63058;49.424;8.420;2022-11-24T08:32:09;7.53;;;2.05;;
20855;SDS011;63058;49.424;8.420;2022-11-24T08:34:36;7.72;;;1.90;;
20855;SDS011;63058;49.424;8.420;2022-11-24T08:37:03;11.25;;;2.10;;
20855;SDS011;63058;49.424;8.420;2022-11-24T08:39:29;7.80;;;1.67;;
20855;SDS011;63058;49.424;8.420;2022-11-24T08:41:55;7.47;;;1.60;;
20855;SDS011;63058;49.424;8.420;2022-11-24T08:44:21;6.85;;;1.98;;
20855;SDS011;63058;49.424;8.420;2022-11-24T08:46:46;8.48;;;2.03;;
20855;SDS011;63058;49.424;8.420;2022-11-24T08:49:12;7.43;;;1.63;;
20855;SDS011;63058;49.424;8.420;2022-11-24T08:51:39;6.15;;;1.60;;
20855;SDS011;63058;49.424;8.420;2022-11-24T08:54:05;6.43;;;1.85;;
20855;SDS011;63058;49.424;8.420;2022-11-24T08:56:32;7.10;;;2.08;;
20855;SDS011;63058;49.424;8.420;2022-11-24T08:58:57;6.97;;;1.58;;
20855;SDS011;63058;49.424;8.420;2022-11-24T09:01:24;7.45;;;1.60;;
20855;SDS011;63058;49.424;8.420;2022-11-24T09:03:51;8.65;;;1.80;;
20855;SDS011;63058;49.424;8.420;2022-11-24T09:06:17;7.75;;;1.75;;
20855;SDS011;63058;49.424;8.420;2022-11-24T09:08:46;7.88;;;1.58;;
20855;SDS011;63058;49.424;8.420;2022-11-24T09:11:13;5.88;;;1.50;;
20855;SDS011;63058;49.424;8.420;2022-11-24T09:13:40;5.80;;;1.40;;
20855;SDS011;63058;49.424;8.420;2022-11-24T09:16:08;7.55;;;1.40;;
20855;SDS011;63058;49.424;8.420;2022-11-24T09:18:38;5.03;;;1.40;;
20855;SDS011;63058;49.424;8.420;2022-11-24T09:21:14;5.95;;;1.27;;
20855;SDS011;63058;49.424;8.420;2022-11-24T09:23:42;5.65;;;1.25;;
20855;SDS011;63058;49.424;8.420;2022-11-24T09:26:10;7.78;;;1.80;;
20855;SDS011;63058;49.424;8.420;2022-11-24T09:28:38;6.65;;;1.60;;
20855;SDS011;63058;49.424;8.420;2022-11-24T09:31:05;5.60;;;1.35;;
20855;SDS011;63058;49.424;8.420;2022-11-24T09:33:32;6.22;;;1.50;;
20855;SDS011;63058;49.424;8.420;2022-11-24T09:35:59;6.15;;;1.20;;
20855;SDS011;63058;49.424;8.420;2022-11-24T09:38:25;5.57;;;1.23;;
20855;SDS011;63058;49.424;8.420;2022-11-24T09:40:51;4.90;;;1.10;;
20855;SDS011;63058;49.424;8.420;2022-11-24T09:49:05;3.53;;;1.08;;
20855;SDS011;63058;49.424;8.420;2022-11-24T09:51:36;5.97;;;1.30;;
20855;SDS011;63058;49.424;8.420;2022-11-24T09:54:23;4.13;;;1.15;;
20855;SDS011;63058;49.424;8.420;2022-11-24T09:56:52;7.22;;;1.50;;
20855;SDS011;63058;49.424;8.420;2022-11-24T09:59:22;3.63;;;1.20;;
20855;SDS011;63058;49.424;8.420;2022-11-24T10:01:50;5.00;;;1.27;;
20855;SDS011;63058;49.424;8.420;2022-11-24T10:04:27;3.60;;;1.27;;
20855;SDS011;63058;49.424;8.420;2022-11-24T10:14:37;4.75;;;0.93;;
20855;SDS011;63058;49.424;8.420;2022-11-24T10:20:47;5.57;;;1.15;;
20855;SDS011;63058;49.424;8.420;2022-11-24T10:23:50;4.88;;;1.30;;
20855;SDS011;63058;49.424;8.420;2022-11-24T10:29:00;3.97;;;0.90;;
20855;SDS011;63058;49.424;8.420;2022-11-24T10:31:35;3.00;;;0.75;;
20855;SDS011;63058;49.424;8.420;2022-11-24T10:34:09;2.88;;;0.93;;
20855;SDS011;63058;49.424;8.420;2022-11-24T10:36:54;2.70;;;0.82;;
20855;SDS011;63058;49.424;8.420;2022-11-24T10:45:11;2.40;;;1.10;;
20855;SDS011;63058;49.424;8.420;2022-11-24T10:47:37;4.00;;;1.02;;
20855;SDS011;63058;49.424;8.420;2022-11-24T10:52:44;4.18;;;1.00;;
20855;SDS011;63058;49.424;8.420;2022-11-24T10:55:19;2.00;;;0.68;;
20855;SDS011;63058;49.424;8.420;2022-11-24T10:57:45;1.63;;;0.70;;
20855;SDS011;63058;49.424;8.420;2022-11-24T11:00:28;2.25;;;1.02;;
20855;SDS011;63058;49.424;8.420;2022-11-24T11:03:16;4.35;;;1.05;;
20855;SDS011;63058;49.424;8.420;2022-11-24T11:06:11;3.58;;;0.90;;
20855;SDS011;63058;49.424;8.420;2022-11-24T11:08:38;5.20;;;1.30;;
20855;SDS011;63058;49.424;8.420;2022-11-24T11:11:12;3.22;;;1.20;;
20855;SDS011;63058;49.424;8.420;2022-11-24T11:16:31;3.63;;;1.10;;
20855;SDS011;63058;49.424;8.420;2022-11-24T11:24:24;2.97;;;0.90;;
20855;SDS011;63058;49.424;8.420;2022-11-24T11:26:57;2.63;;;0.95;;
20855;SDS011;63058;49.424;8.420;2022-11-24T11:29:50;3.35;;;1.00;;
20855;SDS011;63058;49.424;8.420;2022-11-24T11:32:23;5.25;;;1.00;;
20855;SDS011;63058;49.424;8.420;2022-11-24T11:34:51;2.88;;;0.98;;
20855;SDS011;63058;49.424;8.420;2022-11-24T11:37:19;2.22;;;0.90;;
20855;SDS011;63058;49.424;8.420;2022-11-24T11:39:51;3.38;;;1.08;;
20855;SDS011;63058;49.424;8.420;2022-11-24T11:45:17;3.10;;;1.00;;
20855;SDS011;63058;49.424;8.420;2022-11-24T11:47:55;2.08;;;0.77;;
20855;SDS011;63058;49.424;8.420;2022-11-24T11:50:26;6.97;;;1.45;;
20855;SDS011;63058;49.424;8.420;2022-11-24T11:55:58;3.65;;;1.05;;
20855;SDS011;63058;49.424;8.420;2022-11-24T12:04:51;6.25;;;1.50;;
20855;SDS011;63058;49.424;8.420;2022-11-24T12:15:51;3.38;;;1.20;;
20855;SDS011;63058;49.424;8.420;2022-11-24T12:26:46;4.25;;;1.00;;
20855;SDS011;63058;49.424;8.420;2022-11-24T12:35:02;5.03;;;1.50;;
20855;SDS011;63058;49.424;8.420;2022-11-24T12:40:18;5.25;;;1.30;;
20855;SDS011;63058;49.424;8.420;2022-11-24T12:51:18;7.72;;;1.52;;
20855;SDS011;63058;49.424;8.420;2022-11-24T12:53:47;6.07;;;1.60;;
20855;SDS011;63058;49.424;8.420;2022-11-24T12:56:15;5.82;;;1.58;;
20855;SDS011;63058;49.424;8.420;2022-11-24T13:07:10;6.22;;;1.67;;
20855;SDS011;63058;49.424;8.420;2022-11-24T13:12:54;6.20;;;1.20;;
20855;SDS011;63058;49.424;8.420;2022-11-24T13:15:20;6.35;;;1.50;;
20855;SDS011;63058;49.424;8.420;2022-11-24T13:17:46;6.97;;;1.75;;
20855;SDS011;63058;49.424;8.420;2022-11-24T13:20:34;5.88;;;1.63;;
20855;SDS011;63058;49.424;8.420;2022-11-24T13:23:03;5.07;;;1.45;;
20855;SDS011;63058;49.424;8.420;2022-11-24T13:25:33;5.05;;;1.33;;
20855;SDS011;63058;49.424;8.420;2022-11-24T13:28:03;4.22;;;1.42;;
20855;SDS011;63058;49.424;8.420;2022-11-24T13:35:37;3.40;;;1.10;;
20855;SDS011;63058;49.424;8.420;2022-11-24T13:41:08;4.43;;;1.23;;
20855;SDS011;63058;49.424;8.420;2022-11-24T13:43:34;5.70;;;1.55;;
20855;SDS011;63058;49.424;8.420;2022-11-24T13:46:01;5.25;;;1.30;;
20855;SDS011;63058;49.424;8.420;2022-11-24T13:58:36;5.18;;;1.65;;
20855;SDS011;63058;49.424;8.420;2022-11-24T14:01:23;4.65;;;1.50;;
20855;SDS011;63058;49.424;8.420;2022-11-24T14:04:00;5.85;;;1.30;;
20855;SDS011;63058;49.424;8.420;2022-11-24T14:06:28;6.38;;;1.50;;
20855;SDS011;63058;49.424;8.420;2022-11-24T14:08:57;5.18;;;1.50;;
20855;SDS011;63058;49.424;8.420;2022-11-24T14:11:26;4.47;;;1.45;;
20855;SDS011;63058;49.424;8.420;2022-11-24T14:13:53;7.38;;;1.70;;
20855;SDS011;63058;49.424;8.420;2022-11-24T14:16:19;5.05;;;1.38;;
20855;SDS011;63058;49.424;8.420;2022-11-24T14:18:46;4.53;;;1.42;;
20855;SDS011;63058;49.424;8.420;2022-11-24T14:23:55;5.95;;;1.92;;
20855;SDS011;63058;49.424;8.420;2022-11-24T14:26:33;7.25;;;1.60;;
20855;SDS011;63058;49.424;8.420;2022-11-24T14:29:33;8.32;;;1.70;;
20855;SDS011;63058;49.424;8.420;2022-11-24T14:32:00;7.40;;;1.60;;
20855;SDS011;63058;49.424;8.420;2022-11-24T14:34:31;4.55;;;1.30;;
20855;SDS011;63058;49.424;8.420;2022-11-24T14:36:59;4.75;;;1.20;;
20855;SDS011;63058;49.424;8.420;2022-11-24T14:39:27;6.25;;;1.67;;
20855;SDS011;63058;49.424;8.420;2022-11-24T14:42:01;4.60;;;1.20;;
20855;SDS011;63058;49.424;8.420;2022-11-24T14:44:29;6.63;;;1.48;;
20855;SDS011;63058;49.424;8.420;2022-11-24T14:47:01;6.35;;;1.90;;
20855;SDS011;63058;49.424;8.420;2022-11-24T14:49:29;7.47;;;1.75;;
20855;SDS011;63058;49.424;8.420;2022-11-24T14:52:03;7.22;;;1.55;;
20855;SDS011;63058;49.424;8.420;2022-11-24T14:54:42;8.35;;;1.80;;
20855;SDS011;63058;49.424;8.420;2022-11-24T14:57:21;4.15;;;1.20;;
20855;SDS011;63058;49.424;8.420;2022-11-24T15:00:03;3.75;;;1.20;;
20855;SDS011;63058;49.424;8.420;2022-11-24T15:05:13;8.07;;;2.17;;
20855;SDS011;63058;49.424;8.420;2022-11-24T15:07:42;5.95;;;2.10;;
20855;SDS011;63058;49.424;8.420;2022-11-24T15:12:47;7.25;;;1.55;;
20855;SDS011;63058;49.424;8.420;2022-11-24T15:15:17;7.97;;;2.13;;
20855;SDS011;63058;49.424;8.420;2022-11-24T15:17:48;7.13;;;1.80;;
20855;SDS011;63058;49.424;8.420;2022-11-24T15:25:51;5.75;;;1.30;;
20855;SDS011;63058;49.424;8.420;2022-11-24T15:28:37;4.32;;;1.33;;
20855;SDS011;63058;49.424;8.420;2022-11-24T15:31:04;4.65;;;1.60;;
20855;SDS011;63058;49.424;8.420;2022-11-24T15:33:34;5.80;;;1.40;;
20855;SDS011;63058;49.424;8.420;2022-11-24T15:36:00;4.25;;;1.30;;
20855;SDS011;63058;49.424;8.420;2022-11-24T15:38:27;7.75;;;2.50;;
20855;SDS011;63058;49.424;8.420;2022-11-24T15:40:53;6.25;;;1.92;;
20855;SDS011;63058;49.424;8.420;2022-11-24T15:43:33;6.50;;;2.05;;
20855;SDS011;63058;49.424;8.420;2022-11-24T15:46:01;7.50;;;2.20;;
20855;SDS011;63058;49.424;8.420;2022-11-24T15:48:28;5.85;;;1.98;;
20855;SDS011;63058;49.424;8.420;2022-11-24T15:50:54;4.55;;;1.63;;
20855;SDS011;63058;49.424;8.420;2022-11-24T15:53:35;6.03;;;1.75;;
20855;SDS011;63058;49.424;8.420;2022-11-24T15:56:05;5.55;;;1.67;;
20855;SDS011;63058;49.424;8.420;2022-11-24T15:58:35;4.60;;;1.70;;
20855;SDS011;63058;49.424;8.420;2022-11-24T16:01:01;4.15;;;1.90;;
20855;SDS011;63058;49.424;8.420;2022-11-24T16:03:27;4.07;;;1.90;;
20855;SDS011;63058;49.424;8.420;2022-11-24T16:05:53;3.85;;;1.50;;
20855;SDS011;63058;49.424;8.420;2022-11-24T16:08:19;5.80;;;2.25;;
20855;SDS011;63058;49.424;8.420;2022-11-24T16:10:45;9.18;;;2.78;;
20855;SDS011;63058;49.424;8.420;2022-11-24T16:13:12;6.88;;;2.95;;
20855;SDS011;63058;49.424;8.420;2022-11-24T16:15:37;7.70;;;3.00;;
20855;SDS011;63058;49.424;8.420;2022-11-24T16:18:03;10.88;;;3.58;;
20855;SDS011;63058;49.424;8.420;2022-11-24T16:20:31;5.95;;;2.83;;
20855;SDS011;63058;49.424;8.420;2022-11-24T16:22:59;7.05;;;3.50;;
20855;SDS011;63058;49.424;8.420;2022-11-24T16:25:26;6.40;;;3.08;;
20855;SDS011;63058;49.424;8.420;2022-11-24T16:27:51;8.05;;;2.75;;
20855;SDS011;63058;49.424;8.420;2022-11-24T16:30:17;6.88;;;3.55;;
20855;SDS011;63058;49.424;8.420;2022-11-24T16:32:42;8.82;;;3.72;;
20855;SDS011;63058;49.424;8.420;2022-11-24T16:35:08;9.80;;;3.30;;
20855;SDS011;63058;49.424;8.420;2022-11-24T16:37:34;6.88;;;3.35;;
20855;SDS011;63058;49.424;8.420;2022-11-24T16:39:59;14.20;;;3.95;;
20855;SDS011;63058;49.424;8.420;2022-11-24T16:42:26;7.10;;;3.42;;
20855;SDS011;63058;49.424;8.420;2022-11-24T16:44:52;7.05;;;3.25;;
20855;SDS011;63058;49.424;8.420;2022-11-24T16:47:17;8.15;;;3.25;;
20855;SDS011;63058;49.424;8.420;2022-11-24T16:49:47;6.88;;;3.17;;
20855;SDS011;63058;49.424;8.420;2022-11-24T16:52:13;8.43;;;2.55;;
20855;SDS011;63058;49.424;8.420;2022-11-24T16:54:39;4.63;;;2.13;;
20855;SDS011;63058;49.424;8.420;2022-11-24T16:57:05;4.80;;;2.03;;
20855;SDS011;63058;49.424;8.420;2022-11-24T16:59:31;5.43;;;2.13;;
20855;SDS011;63058;49.424;8.420;2022-11-24T17:01:57;9.07;;;2.50;;
20855;SDS011;63058;49.424;8.420;2022-11-24T17:04:23;4.60;;;2.50;;
20855;SDS011;63058;49.424;8.420;2022-11-24T17:06:49;5.93;;;2.90;;
20855;SDS011;63058;49.424;8.420;2022-11-24T17:09:15;7.65;;;2.65;;